createdAt,value
2019-02-10T00:00:24.605Z,999.02
2019-02-10T00:01:24.586Z,998.96
2019-02-10T00:02:24.564Z,998.91
2019-02-10T00:03:24.547Z,998.91
2019-02-10T00:04:24.531Z,998.88
2019-02-10T00:05:24.511Z,998.85
2019-02-10T00:06:25.107Z,998.92
2019-02-10T00:07:24.464Z,998.85
2019-02-10T00:08:24.442Z,998.88
2019-02-10T00:09:24.426Z,998.85
2019-02-10T00:10:24.401Z,998.79
2019-02-10T00:11:24.390Z,998.75
2019-02-10T00:12:24.363Z,998.76
2019-02-10T00:13:24.339Z,998.70
2019-02-10T00:14:24.322Z,998.74
2019-02-10T00:15:24.300Z,998.69
2019-02-10T00:16:24.287Z,998.67
2019-02-10T00:17:24.258Z,998.64
2019-02-10T00:18:24.239Z,998.57
2019-02-10T00:19:24.218Z,998.56
2019-02-10T00:20:24.201Z,998.49
2019-02-10T00:21:24.182Z,998.49
2019-02-10T00:22:24.159Z,998.50
2019-02-10T00:23:24.136Z,998.50
2019-02-10T00:24:24.120Z,998.40
2019-02-10T00:25:24.095Z,998.45
2019-02-10T00:26:24.077Z,998.47
2019-02-10T00:27:24.054Z,998.39
2019-02-10T00:28:24.041Z,998.34
2019-02-10T00:29:24.016Z,998.35
2019-02-10T00:30:23.991Z,998.32
2019-02-10T00:31:23.977Z,998.30
2019-02-10T00:32:23.949Z,998.29
2019-02-10T00:33:23.933Z,998.27
2019-02-10T00:34:23.925Z,998.26
2019-02-10T00:35:23.890Z,998.22
2019-02-10T00:36:23.871Z,998.22
2019-02-10T00:37:23.849Z,998.20
2019-02-10T00:38:23.835Z,998.20
2019-02-10T00:39:23.807Z,998.13
2019-02-10T00:40:23.795Z,998.08
2019-02-10T00:41:23.766Z,998.06
2019-02-10T00:42:23.746Z,998.15
2019-02-10T00:43:23.726Z,998.08
2019-02-10T00:44:23.712Z,998.05
2019-02-10T00:45:23.686Z,998.02
2019-02-10T00:46:23.669Z,997.98
2019-02-10T00:47:23.643Z,997.98
2019-02-10T00:48:23.623Z,997.89
2019-02-10T00:49:23.605Z,997.91
2019-02-10T00:50:23.581Z,997.93
2019-02-10T00:51:23.563Z,997.87
2019-02-10T00:52:23.539Z,997.85
2019-02-10T00:53:23.519Z,997.83
2019-02-10T00:54:23.507Z,997.81
2019-02-10T00:55:23.478Z,997.81
2019-02-10T00:56:23.458Z,997.89
2019-02-10T00:57:23.437Z,997.84
2019-02-10T00:58:23.439Z,997.77
2019-02-10T00:59:23.399Z,997.77
2019-02-10T01:00:23.377Z,997.72
2019-02-10T01:01:23.359Z,997.70
2019-02-10T01:02:23.344Z,997.70
2019-02-10T01:03:23.316Z,997.63
2019-02-10T01:04:23.296Z,997.66
2019-02-10T01:05:23.285Z,997.53
2019-02-10T01:06:23.255Z,997.50
2019-02-10T01:07:23.241Z,997.50
2019-02-10T01:08:23.212Z,997.52
2019-02-10T01:09:23.192Z,997.49
2019-02-10T01:10:23.170Z,997.49
2019-02-10T01:11:23.163Z,997.53
2019-02-10T01:12:23.129Z,997.51
2019-02-10T01:13:23.113Z,997.50
2019-02-10T01:14:23.090Z,997.48
2019-02-10T01:15:23.072Z,997.50
2019-02-10T01:16:23.059Z,997.45
2019-02-10T01:17:23.028Z,997.44
2019-02-10T01:18:23.008Z,997.46
2019-02-10T01:19:22.996Z,997.44
2019-02-10T01:20:22.981Z,997.43
2019-02-10T01:21:22.944Z,997.42
2019-02-10T01:22:22.934Z,997.45
2019-02-10T01:23:22.907Z,997.38
2019-02-10T01:24:22.886Z,997.42
2019-02-10T01:25:22.870Z,997.38
2019-02-10T01:26:22.842Z,997.31
2019-02-10T01:27:22.826Z,997.31
2019-02-10T01:28:22.804Z,997.32
2019-02-10T01:29:22.782Z,997.29
2019-02-10T01:30:22.767Z,997.29
2019-02-10T01:31:22.743Z,997.21
2019-02-10T01:32:22.721Z,997.21
2019-02-10T01:33:22.701Z,997.19
2019-02-10T01:34:22.680Z,997.19
2019-02-10T01:35:22.662Z,997.14
2019-02-10T01:36:22.650Z,997.08
2019-02-10T01:37:22.621Z,997.10
2019-02-10T01:38:22.597Z,997.04
2019-02-10T01:39:22.579Z,997.05
2019-02-10T01:40:22.562Z,997.02
2019-02-10T01:41:22.543Z,996.95
2019-02-10T01:42:22.519Z,996.95
2019-02-10T01:43:22.495Z,996.88
2019-02-10T01:44:22.473Z,996.89
2019-02-10T01:45:22.454Z,996.86
2019-02-10T01:46:22.434Z,996.77
2019-02-10T01:47:22.413Z,996.77
2019-02-10T01:48:22.399Z,996.76
2019-02-10T01:49:22.375Z,996.74
2019-02-10T01:50:22.360Z,996.74
2019-02-10T01:51:22.331Z,996.68
2019-02-10T01:52:22.313Z,996.64
2019-02-10T01:53:22.292Z,996.58
2019-02-10T01:54:22.270Z,996.57
2019-02-10T01:55:22.249Z,996.53
2019-02-10T01:56:22.229Z,996.49
2019-02-10T01:57:22.209Z,996.51
2019-02-10T01:58:22.191Z,996.46
2019-02-10T01:59:22.172Z,996.47
2019-02-10T02:00:22.147Z,996.42
2019-02-10T02:01:22.127Z,996.45
2019-02-10T02:02:22.107Z,996.40
2019-02-10T02:03:22.092Z,996.35
2019-02-10T02:04:22.067Z,996.36
2019-02-10T02:05:22.055Z,996.34
2019-02-10T02:06:22.028Z,996.33
2019-02-10T02:07:22.006Z,996.33
2019-02-10T02:08:21.988Z,996.30
2019-02-10T02:09:21.967Z,996.24
2019-02-10T02:10:21.951Z,996.27
2019-02-10T02:11:21.925Z,996.23
2019-02-10T02:12:21.906Z,996.20
2019-02-10T02:13:21.886Z,996.18
2019-02-10T02:14:21.863Z,996.20
2019-02-10T02:15:21.845Z,996.17
2019-02-10T02:16:21.826Z,996.11
2019-02-10T02:17:21.807Z,996.12
2019-02-10T02:18:21.782Z,996.06
2019-02-10T02:19:21.765Z,996.07
2019-02-10T02:20:21.751Z,996.10
2019-02-10T02:21:21.723Z,996.04
2019-02-10T02:22:21.721Z,996.01
2019-02-10T02:23:21.680Z,995.99
2019-02-10T02:24:21.665Z,996.05
2019-02-10T02:25:21.641Z,995.99
2019-02-10T02:26:21.621Z,995.98
2019-02-10T02:27:21.607Z,995.97
2019-02-10T02:28:21.579Z,995.92
2019-02-10T02:29:21.560Z,995.94
2019-02-10T02:30:21.546Z,995.82
2019-02-10T02:31:21.519Z,995.82
2019-02-10T02:32:21.497Z,995.82
2019-02-10T02:33:21.479Z,995.81
2019-02-10T02:34:21.456Z,995.81
2019-02-10T02:35:21.434Z,995.69
2019-02-10T02:36:21.417Z,995.71
2019-02-10T02:37:21.396Z,995.66
2019-02-10T02:38:21.388Z,995.67
2019-02-10T02:39:21.353Z,995.65
2019-02-10T02:40:21.332Z,995.63
2019-02-10T02:41:21.312Z,995.62
2019-02-10T02:42:21.294Z,995.53
2019-02-10T02:43:21.290Z,995.53
2019-02-10T02:44:21.252Z,995.49
2019-02-10T02:45:21.235Z,995.48
2019-02-10T02:46:21.212Z,995.46
2019-02-10T02:47:21.189Z,995.43
2019-02-10T02:48:21.174Z,995.40
2019-02-10T02:49:21.149Z,995.36
2019-02-10T02:50:21.130Z,995.37
2019-02-10T02:51:21.108Z,995.34
2019-02-10T02:52:21.098Z,995.32
2019-02-10T02:53:21.069Z,995.31
2019-02-10T02:54:21.046Z,995.26
2019-02-10T02:55:21.031Z,995.27
2019-02-10T02:56:21.006Z,995.28
2019-02-10T02:57:20.984Z,995.26
2019-02-10T02:58:20.976Z,995.23
2019-02-10T02:59:20.994Z,995.22
2019-02-10T03:00:20.927Z,995.22
2019-02-10T03:01:20.903Z,995.25
2019-02-10T03:02:20.894Z,995.19
2019-02-10T03:03:20.864Z,995.16
2019-02-10T03:04:20.862Z,995.11
2019-02-10T03:05:20.833Z,995.06
2019-02-10T03:06:20.802Z,995.06
2019-02-10T03:07:20.779Z,995.02
2019-02-10T03:08:20.765Z,995.01
2019-02-10T03:09:20.740Z,994.95
2019-02-10T03:10:20.722Z,994.89
2019-02-10T03:11:20.701Z,994.89
2019-02-10T03:12:20.681Z,994.76
2019-02-10T03:13:20.658Z,994.76
2019-02-10T03:14:20.641Z,994.67
2019-02-10T03:15:20.614Z,994.62
2019-02-10T03:16:20.592Z,994.61
2019-02-10T03:17:20.576Z,994.51
2019-02-10T03:18:20.558Z,994.45
2019-02-10T03:19:20.542Z,994.39
2019-02-10T03:20:20.516Z,994.34
2019-02-10T03:21:20.491Z,994.26
2019-02-10T03:22:20.472Z,994.34
2019-02-10T03:23:20.459Z,994.25
2019-02-10T03:24:20.431Z,994.26
2019-02-10T03:25:20.413Z,994.24
2019-02-10T03:26:20.390Z,994.27
2019-02-10T03:27:20.366Z,994.24
2019-02-10T03:28:20.350Z,994.25
2019-02-10T03:29:20.327Z,994.26
2019-02-10T03:30:20.306Z,994.24
2019-02-10T03:31:20.283Z,994.16
2019-02-10T03:32:20.266Z,994.14
2019-02-10T03:33:20.242Z,994.08
2019-02-10T03:34:20.225Z,994.08
2019-02-10T03:35:20.199Z,994.03
2019-02-10T03:36:20.180Z,994.02
2019-02-10T03:37:26.962Z,994.02
2019-02-10T03:38:20.139Z,993.97
2019-02-10T03:39:20.131Z,993.94
2019-02-10T03:40:20.097Z,993.93
2019-02-10T03:41:20.077Z,993.89
2019-02-10T03:42:20.056Z,993.94
2019-02-10T03:43:20.035Z,993.86
2019-02-10T03:44:20.028Z,993.85
2019-02-10T03:45:19.996Z,993.80
2019-02-10T03:46:19.978Z,993.79
2019-02-10T03:47:21.972Z,993.72
2019-02-10T03:48:19.932Z,993.75
2019-02-10T03:49:19.912Z,993.70
2019-02-10T03:50:19.889Z,993.65
2019-02-10T03:51:19.867Z,993.60
2019-02-10T03:52:19.847Z,993.61
2019-02-10T03:53:19.833Z,993.58
2019-02-10T03:54:19.813Z,993.59
2019-02-10T03:55:19.787Z,993.55
2019-02-10T03:56:19.767Z,993.46
2019-02-10T03:57:19.749Z,993.49
2019-02-10T03:58:19.725Z,993.45
2019-02-10T03:59:19.703Z,993.45
2019-02-10T04:00:19.683Z,993.37
2019-02-10T04:01:19.667Z,993.35
2019-02-10T04:02:19.648Z,993.30
2019-02-10T04:03:19.618Z,993.27
2019-02-10T04:04:19.598Z,993.19
2019-02-10T04:05:19.577Z,993.21
2019-02-10T04:06:19.564Z,993.20
2019-02-10T04:07:19.549Z,993.20
2019-02-10T04:08:19.516Z,993.09
2019-02-10T04:09:19.497Z,993.10
2019-02-10T04:10:19.478Z,993.05
2019-02-10T04:11:19.454Z,993.02
2019-02-10T04:12:19.434Z,992.93
2019-02-10T04:13:19.414Z,992.96
2019-02-10T04:14:19.391Z,992.93
2019-02-10T04:15:19.373Z,992.83
2019-02-10T04:16:19.358Z,992.82
2019-02-10T04:17:19.331Z,992.76
2019-02-10T04:18:19.315Z,992.82
2019-02-10T04:19:19.286Z,992.70
2019-02-10T04:20:19.269Z,992.74
2019-02-10T04:21:19.242Z,992.73
2019-02-10T04:22:19.221Z,992.75
2019-02-10T04:23:19.200Z,992.68
2019-02-10T04:24:19.181Z,992.66
2019-02-10T04:25:19.161Z,992.67
2019-02-10T04:26:19.136Z,992.61
2019-02-10T04:27:19.117Z,992.59
2019-02-10T04:28:19.099Z,992.61
2019-02-10T04:29:19.072Z,992.58
2019-02-10T04:30:19.054Z,992.46
2019-02-10T04:31:19.032Z,992.42
2019-02-10T04:32:19.020Z,992.38
2019-02-10T04:33:18.990Z,992.38
2019-02-10T04:34:18.978Z,992.31
2019-02-10T04:35:18.951Z,992.29
2019-02-10T04:36:18.928Z,992.25
2019-02-10T04:37:18.906Z,992.19
2019-02-10T04:38:18.887Z,992.17
2019-02-10T04:39:18.868Z,992.15
2019-02-10T04:40:18.846Z,992.12
2019-02-10T04:41:18.823Z,992.13
2019-02-10T04:42:18.809Z,992.07
2019-02-10T04:43:18.783Z,992.02
2019-02-10T04:44:18.790Z,991.99
2019-02-10T04:45:18.738Z,991.94
2019-02-10T04:46:18.726Z,991.93
2019-02-10T04:47:18.693Z,991.92
2019-02-10T04:48:18.672Z,991.87
2019-02-10T04:49:18.652Z,991.87
2019-02-10T04:50:18.631Z,991.81
2019-02-10T04:51:18.608Z,991.77
2019-02-10T04:52:18.589Z,991.72
2019-02-10T04:53:18.569Z,991.67
2019-02-10T04:54:18.549Z,991.68
2019-02-10T04:55:18.527Z,991.58
2019-02-10T04:56:18.502Z,991.60
2019-02-10T04:57:18.483Z,991.50
2019-02-10T04:58:18.466Z,991.51
2019-02-10T04:59:18.439Z,991.44
2019-02-10T05:00:18.419Z,991.36
2019-02-10T05:01:18.396Z,991.36
2019-02-10T05:02:18.381Z,991.33
2019-02-10T05:03:18.354Z,991.28
2019-02-10T05:04:18.330Z,991.25
2019-02-10T05:05:18.311Z,991.19
2019-02-10T05:06:18.288Z,991.19
2019-02-10T05:07:18.266Z,991.10
2019-02-10T05:08:18.244Z,991.10
2019-02-10T05:09:18.227Z,991.01
2019-02-10T05:10:18.204Z,990.95
2019-02-10T05:11:18.186Z,990.90
2019-02-10T05:12:18.160Z,990.89
2019-02-10T05:13:18.138Z,990.80
2019-02-10T05:14:18.119Z,990.72
2019-02-10T05:15:18.096Z,990.75
2019-02-10T05:16:18.071Z,990.63
2019-02-10T05:17:18.052Z,990.64
2019-02-10T05:18:18.031Z,990.64
2019-02-10T05:19:18.008Z,990.68
2019-02-10T05:20:17.999Z,990.60
2019-02-10T05:21:17.965Z,990.52
2019-02-10T05:22:17.945Z,990.51
2019-02-10T05:23:17.920Z,990.49
2019-02-10T05:24:17.898Z,990.39
2019-02-10T05:25:17.885Z,990.36
2019-02-10T05:26:17.855Z,990.33
2019-02-10T05:27:17.833Z,990.31
2019-02-10T05:28:17.822Z,990.27
2019-02-10T05:29:17.796Z,990.28
2019-02-10T05:30:17.767Z,990.22
2019-02-10T05:31:17.748Z,990.18
2019-02-10T05:32:17.723Z,990.07
2019-02-10T05:33:17.705Z,990.08
2019-02-10T05:34:17.681Z,990.01
2019-02-10T05:35:17.659Z,989.95
2019-02-10T05:36:17.645Z,989.91
2019-02-10T05:37:17.615Z,989.86
2019-02-10T05:38:17.600Z,989.77
2019-02-10T05:39:17.593Z,989.74
2019-02-10T05:40:17.560Z,989.71
2019-02-10T05:41:17.533Z,989.59
2019-02-10T05:42:17.505Z,989.58
2019-02-10T05:43:17.483Z,989.43
2019-02-10T05:44:17.463Z,989.44
2019-02-10T05:45:17.442Z,989.44
2019-02-10T05:46:17.419Z,989.35
2019-02-10T05:47:19.296Z,989.25
2019-02-10T05:48:17.375Z,989.22
2019-02-10T05:49:17.373Z,989.19
2019-02-10T05:50:17.332Z,989.13
2019-02-10T05:51:17.308Z,989.10
2019-02-10T05:52:17.288Z,989.05
2019-02-10T05:53:17.271Z,989.09
2019-02-10T05:54:17.244Z,988.95
2019-02-10T05:55:17.226Z,988.97
2019-02-10T05:56:17.199Z,988.80
2019-02-10T05:57:17.186Z,988.91
2019-02-10T05:58:17.157Z,988.87
2019-02-10T05:59:17.138Z,988.84
2019-02-10T06:00:17.117Z,988.79
2019-02-10T06:01:17.089Z,988.71
2019-02-10T06:02:17.076Z,988.64
2019-02-10T06:03:17.048Z,988.68
2019-02-10T06:04:17.028Z,988.68
2019-02-10T06:05:17.003Z,988.57
2019-02-10T06:06:16.980Z,988.52
2019-02-10T06:07:17.004Z,988.39
2019-02-10T06:08:16.938Z,988.41
2019-02-10T06:09:16.922Z,988.41
2019-02-10T06:10:16.896Z,988.41
2019-02-10T06:11:16.870Z,988.29
2019-02-10T06:12:16.855Z,988.29
2019-02-10T06:13:16.830Z,988.26
2019-02-10T06:14:16.808Z,988.19
2019-02-10T06:15:16.784Z,988.19
2019-02-10T06:16:16.760Z,988.02
2019-02-10T06:17:16.739Z,988.03
2019-02-10T06:18:16.717Z,988.01
2019-02-10T06:19:16.707Z,988.09
2019-02-10T06:20:16.676Z,988.05
2019-02-10T06:21:16.657Z,988.09
2019-02-10T06:22:16.634Z,988.00
2019-02-10T06:23:16.607Z,987.89
2019-02-10T06:24:16.586Z,987.92
2019-02-10T06:25:16.565Z,987.84
2019-02-10T06:26:16.542Z,987.71
2019-02-10T06:27:16.523Z,987.69
2019-02-10T06:28:16.502Z,987.65
2019-02-10T06:29:16.477Z,987.70
2019-02-10T06:30:16.454Z,987.64
2019-02-10T06:31:16.470Z,987.65
2019-02-10T06:32:16.409Z,987.70
2019-02-10T06:33:16.388Z,987.54
2019-02-10T06:34:16.366Z,987.49
2019-02-10T06:35:16.343Z,987.45
2019-02-10T06:36:16.782Z,987.35
2019-02-10T06:37:16.306Z,987.51
2019-02-10T06:38:22.252Z,987.54
2019-02-10T06:39:16.259Z,987.63
2019-02-10T06:40:16.236Z,987.63
2019-02-10T06:41:16.209Z,987.61
2019-02-10T06:42:17.991Z,987.60
2019-02-10T06:43:16.171Z,987.48
2019-02-10T06:44:16.143Z,987.49
2019-02-10T06:45:16.132Z,987.26
2019-02-10T06:46:16.100Z,987.34
2019-02-10T06:47:16.079Z,987.30
2019-02-10T06:48:16.065Z,987.29
2019-02-10T06:49:16.038Z,987.22
2019-02-10T06:50:16.012Z,987.19
2019-02-10T06:51:15.992Z,987.22
2019-02-10T06:52:15.977Z,987.23
2019-02-10T06:53:15.948Z,987.11
2019-02-10T06:54:15.930Z,987.16
2019-02-10T06:55:15.924Z,987.09
2019-02-10T06:56:15.883Z,987.01
2019-02-10T06:57:15.861Z,986.99
2019-02-10T06:58:15.839Z,986.94
2019-02-10T06:59:15.822Z,986.96
2019-02-10T07:00:15.796Z,986.97
2019-02-10T07:01:15.775Z,986.90
2019-02-10T07:02:15.753Z,986.95
2019-02-10T07:03:15.734Z,987.05
2019-02-10T07:04:15.716Z,987.05
2019-02-10T07:05:15.688Z,987.05
2019-02-10T07:06:15.666Z,987.02
2019-02-10T07:07:15.646Z,987.04
2019-02-10T07:08:15.630Z,986.86
2019-02-10T07:09:15.617Z,986.87
2019-02-10T07:10:15.578Z,986.74
2019-02-10T07:11:15.557Z,986.77
2019-02-10T07:12:15.537Z,986.65
2019-02-10T07:13:15.521Z,986.69
2019-02-10T07:14:15.497Z,986.67
2019-02-10T07:15:15.478Z,986.68
2019-02-10T07:16:15.450Z,986.59
2019-02-10T07:17:15.428Z,986.56
2019-02-10T07:18:15.406Z,986.50
2019-02-10T07:19:15.388Z,986.44
2019-02-10T07:20:15.377Z,986.44
2019-02-10T07:21:15.343Z,986.41
2019-02-10T07:22:15.323Z,986.36
2019-02-10T07:23:15.299Z,986.37
2019-02-10T07:24:15.279Z,986.30
2019-02-10T07:25:15.256Z,986.25
2019-02-10T07:26:15.239Z,986.21
2019-02-10T07:27:15.214Z,986.16
2019-02-10T07:28:15.197Z,986.18
2019-02-10T07:29:15.171Z,986.15
2019-02-10T07:30:15.151Z,986.12
2019-02-10T07:31:15.131Z,986.07
2019-02-10T07:32:15.106Z,986.14
2019-02-10T07:33:15.083Z,986.10
2019-02-10T07:34:15.070Z,986.07
2019-02-10T07:35:15.042Z,986.04
2019-02-10T07:36:15.023Z,986.02
2019-02-10T07:37:15.007Z,985.93
2019-02-10T07:38:14.982Z,985.91
2019-02-10T07:39:14.958Z,985.84
2019-02-10T07:40:14.949Z,985.73
2019-02-10T07:41:14.915Z,985.67
2019-02-10T07:42:14.896Z,985.60
2019-02-10T07:43:14.884Z,985.54
2019-02-10T07:44:14.852Z,985.59
2019-02-10T07:45:14.828Z,985.54
2019-02-10T07:46:14.815Z,985.44
2019-02-10T07:47:14.789Z,985.52
2019-02-10T07:48:14.767Z,985.44
2019-02-10T07:49:14.752Z,985.38
2019-02-10T07:50:14.722Z,985.35
2019-02-10T07:51:14.701Z,985.29
2019-02-10T07:52:14.682Z,985.30
2019-02-10T07:53:14.664Z,985.24
2019-02-10T07:54:14.647Z,985.18
2019-02-10T07:55:14.619Z,985.17
2019-02-10T07:56:14.599Z,985.08
2019-02-10T07:57:14.576Z,985.09
2019-02-10T07:58:14.555Z,985.00
2019-02-10T07:59:14.532Z,984.97
2019-02-10T08:00:14.510Z,984.94
2019-02-10T08:01:14.491Z,984.95
2019-02-10T08:02:14.468Z,984.88
2019-02-10T08:03:14.455Z,984.82
2019-02-10T08:04:14.427Z,984.75
2019-02-10T08:05:14.407Z,984.74
2019-02-10T08:06:14.381Z,984.66
2019-02-10T08:07:14.365Z,984.60
2019-02-10T08:08:14.338Z,984.68
2019-02-10T08:09:14.316Z,984.65
2019-02-10T08:10:14.298Z,984.63
2019-02-10T08:11:14.278Z,984.57
2019-02-10T08:12:14.253Z,984.62
2019-02-10T08:13:14.243Z,984.64
2019-02-10T08:14:14.215Z,984.60
2019-02-10T08:15:14.189Z,984.65
2019-02-10T08:16:14.180Z,984.50
2019-02-10T08:17:14.150Z,984.55
2019-02-10T08:18:14.131Z,984.53
2019-02-10T08:19:14.106Z,984.57
2019-02-10T08:20:14.093Z,984.37
2019-02-10T08:21:14.066Z,984.50
2019-02-10T08:22:14.050Z,984.48
2019-02-10T08:23:14.031Z,984.46
2019-02-10T08:24:14.002Z,984.42
2019-02-10T08:25:13.983Z,984.45
2019-02-10T08:26:13.962Z,984.42
2019-02-10T08:27:13.943Z,984.29
2019-02-10T08:28:13.924Z,984.21
2019-02-10T08:29:13.897Z,984.27
2019-02-10T08:30:13.880Z,984.27
2019-02-10T08:31:13.860Z,984.26
2019-02-10T08:32:13.835Z,984.25
2019-02-10T08:33:13.815Z,984.20
2019-02-10T08:34:13.792Z,984.18
2019-02-10T08:35:13.771Z,984.17
2019-02-10T08:36:13.756Z,984.14
2019-02-10T08:37:13.734Z,984.23
2019-02-10T08:38:13.714Z,984.12
2019-02-10T08:39:13.694Z,984.18
2019-02-10T08:40:13.670Z,984.06
2019-02-10T08:41:13.648Z,984.02
2019-02-10T08:42:13.632Z,983.93
2019-02-10T08:43:13.609Z,984.01
2019-02-10T08:44:14.459Z,984.00
2019-02-10T08:45:13.566Z,983.95
2019-02-10T08:46:13.551Z,983.86
2019-02-10T08:47:13.524Z,983.85
2019-02-10T08:48:13.512Z,983.82
2019-02-10T08:49:13.525Z,983.84
2019-02-10T08:50:13.461Z,983.88
2019-02-10T08:51:13.442Z,983.87
2019-02-10T08:52:13.441Z,983.96
2019-02-10T08:53:13.410Z,983.94
2019-02-10T08:54:13.384Z,983.81
2019-02-10T08:55:13.360Z,983.77
2019-02-10T08:56:13.341Z,983.73
2019-02-10T08:57:13.317Z,983.74
2019-02-10T08:58:13.299Z,983.59
2019-02-10T08:59:13.281Z,983.58
2019-02-10T09:00:13.257Z,983.42
2019-02-10T09:01:13.235Z,983.55
2019-02-10T09:02:13.216Z,983.48
2019-02-10T09:03:19.387Z,983.62
2019-02-10T09:04:13.179Z,983.52
2019-02-10T09:05:13.152Z,983.43
2019-02-10T09:06:13.132Z,983.46
2019-02-10T09:07:13.139Z,983.38
2019-02-10T09:08:13.097Z,983.35
2019-02-10T09:09:13.087Z,983.36
2019-02-10T09:10:13.059Z,983.37
2019-02-10T09:11:13.032Z,983.33
2019-02-10T09:12:13.013Z,983.27
2019-02-10T09:13:12.989Z,983.37
2019-02-10T09:14:12.984Z,983.20
2019-02-10T09:15:12.954Z,983.22
2019-02-10T09:16:12.933Z,983.33
2019-02-10T09:17:12.904Z,983.29
2019-02-10T09:18:12.885Z,983.28
2019-02-10T09:19:12.867Z,983.27
2019-02-10T09:20:12.849Z,983.27
2019-02-10T09:21:12.826Z,983.17
2019-02-10T09:22:12.911Z,983.15
2019-02-10T09:23:12.786Z,983.28
2019-02-10T09:24:12.761Z,983.07
2019-02-10T09:25:12.741Z,983.10
2019-02-10T09:26:12.772Z,983.08
2019-02-10T09:27:12.707Z,983.07
2019-02-10T09:28:12.681Z,983.15
2019-02-10T09:29:12.664Z,983.09
2019-02-10T09:30:12.640Z,983.06
2019-02-10T09:31:12.630Z,983.15
2019-02-10T09:32:12.651Z,983.07
2019-02-10T09:33:12.582Z,983.00
2019-02-10T09:34:12.565Z,982.98
2019-02-10T09:35:12.548Z,982.86
2019-02-10T09:36:12.535Z,982.87
2019-02-10T09:37:12.496Z,982.92
2019-02-10T09:38:12.477Z,982.94
2019-02-10T09:39:12.461Z,982.94
2019-02-10T09:40:12.435Z,983.02
2019-02-10T09:41:12.415Z,982.94
2019-02-10T09:42:12.396Z,982.93
2019-02-10T09:43:12.375Z,982.91
2019-02-10T09:44:12.357Z,982.91
2019-02-10T09:45:12.341Z,982.87
2019-02-10T09:46:12.320Z,982.86
2019-02-10T09:47:12.296Z,982.90
2019-02-10T09:48:12.280Z,982.92
2019-02-10T09:49:12.257Z,982.98
2019-02-10T09:50:12.245Z,982.92
2019-02-10T09:51:12.212Z,982.87
2019-02-10T09:52:12.200Z,982.87
2019-02-10T09:53:12.179Z,982.87
2019-02-10T09:54:12.214Z,982.86
2019-02-10T09:55:12.135Z,982.78
2019-02-10T09:56:12.114Z,982.78
2019-02-10T09:57:12.194Z,982.77
2019-02-10T09:58:12.073Z,982.81
2019-02-10T09:59:12.056Z,982.70
2019-02-10T10:00:12.049Z,982.73
2019-02-10T10:01:12.026Z,982.70
2019-02-10T10:02:11.995Z,982.77
2019-02-10T10:03:12.042Z,982.75
2019-02-10T10:04:11.954Z,982.73
2019-02-10T10:05:11.929Z,982.75
2019-02-10T10:06:11.912Z,982.81
2019-02-10T10:07:11.893Z,982.69
2019-02-10T10:08:11.871Z,982.79
2019-02-10T10:09:18.938Z,982.68
2019-02-10T10:10:11.847Z,982.69
2019-02-10T10:11:11.814Z,982.65
2019-02-10T10:12:11.806Z,982.70
2019-02-10T10:13:11.769Z,982.72
2019-02-10T10:14:11.756Z,982.71
2019-02-10T10:15:11.738Z,982.72
2019-02-10T10:16:11.709Z,982.71
2019-02-10T10:17:11.697Z,982.65
2019-02-10T10:18:11.675Z,982.64
2019-02-10T10:19:11.649Z,982.64
2019-02-10T10:20:11.634Z,982.58
2019-02-10T10:21:11.609Z,982.64
2019-02-10T10:22:11.593Z,982.60
2019-02-10T10:23:11.571Z,982.66
2019-02-10T10:24:11.551Z,982.64
2019-02-10T10:25:11.571Z,982.49
2019-02-10T10:26:11.519Z,982.56
2019-02-10T10:27:11.490Z,982.50
2019-02-10T10:28:11.523Z,982.59
2019-02-10T10:29:11.448Z,982.62
2019-02-10T10:30:11.430Z,982.58
2019-02-10T10:31:11.413Z,982.56
2019-02-10T10:32:11.389Z,982.50
2019-02-10T10:33:11.368Z,982.45
2019-02-10T10:34:11.347Z,982.43
2019-02-10T10:35:11.330Z,982.40
2019-02-10T10:36:11.311Z,982.41
2019-02-10T10:37:11.293Z,982.42
2019-02-10T10:38:11.272Z,982.36
2019-02-10T10:39:11.248Z,982.30
2019-02-10T10:40:11.236Z,982.45
2019-02-10T10:41:11.208Z,982.34
2019-02-10T10:42:11.195Z,982.17
2019-02-10T10:43:11.170Z,982.40
2019-02-10T10:44:11.150Z,982.21
2019-02-10T10:45:11.134Z,982.31
2019-02-10T10:46:11.109Z,982.18
2019-02-10T10:47:11.087Z,982.16
2019-02-10T10:48:11.068Z,982.16
2019-02-10T10:49:11.051Z,982.14
2019-02-10T10:50:11.029Z,982.31
2019-02-10T10:51:11.019Z,982.18
2019-02-10T10:52:10.987Z,982.27
2019-02-10T10:53:10.972Z,982.14
2019-02-10T10:54:10.956Z,982.07
2019-02-10T10:55:10.928Z,982.12
2019-02-10T10:56:10.911Z,982.15
2019-02-10T10:57:10.895Z,982.23
2019-02-10T10:58:10.870Z,982.28
2019-02-10T10:59:10.854Z,982.13
2019-02-10T11:00:10.882Z,982.18
2019-02-10T11:01:10.825Z,982.16
2019-02-10T11:02:10.792Z,982.23
2019-02-10T11:03:10.774Z,982.21
2019-02-10T11:04:10.747Z,982.17
2019-02-10T11:05:10.729Z,982.19
2019-02-10T11:06:10.711Z,982.08
2019-02-10T11:07:10.691Z,982.17
2019-02-10T11:08:10.668Z,982.20
2019-02-10T11:09:10.649Z,982.07
2019-02-10T11:10:10.626Z,982.07
2019-02-10T11:11:10.607Z,981.99
2019-02-10T11:12:10.597Z,982.00
2019-02-10T11:13:10.570Z,982.02
2019-02-10T11:14:10.549Z,981.97
2019-02-10T11:15:10.832Z,981.98
2019-02-10T11:16:10.507Z,981.92
2019-02-10T11:17:10.672Z,981.85
2019-02-10T11:18:10.470Z,981.87
2019-02-10T11:19:10.462Z,981.94
2019-02-10T11:20:10.428Z,981.93
2019-02-10T11:21:10.413Z,981.88
2019-02-10T11:22:10.395Z,981.88
2019-02-10T11:23:10.372Z,981.89
2019-02-10T11:24:10.353Z,981.80
2019-02-10T11:25:10.340Z,981.79
2019-02-10T11:26:10.309Z,981.78
2019-02-10T11:27:10.294Z,981.79
2019-02-10T11:28:10.278Z,981.79
2019-02-10T11:29:10.251Z,981.78
2019-02-10T11:30:10.232Z,981.80
2019-02-10T11:31:10.220Z,981.87
2019-02-10T11:32:10.195Z,981.78
2019-02-10T11:33:10.191Z,981.76
2019-02-10T11:34:10.155Z,981.69
2019-02-10T11:35:10.132Z,981.71
2019-02-10T11:36:10.116Z,981.69
2019-02-10T11:37:10.096Z,981.61
2019-02-10T11:38:10.079Z,981.70
2019-02-10T11:39:10.048Z,981.63
2019-02-10T11:40:10.029Z,981.66
2019-02-10T11:41:10.014Z,981.67
2019-02-10T11:42:09.992Z,981.65
2019-02-10T11:43:09.972Z,981.69
2019-02-10T11:44:09.955Z,981.73
2019-02-10T11:45:09.934Z,981.65
2019-02-10T11:46:09.929Z,981.62
2019-02-10T11:47:09.902Z,981.49
2019-02-10T11:48:09.875Z,981.61
2019-02-10T11:49:09.854Z,981.64
2019-02-10T11:50:09.839Z,981.52
2019-02-10T11:51:09.817Z,981.61
2019-02-10T11:52:09.809Z,981.58
2019-02-10T11:53:09.784Z,981.53
2019-02-10T11:54:09.765Z,981.52
2019-02-10T11:55:09.743Z,981.49
2019-02-10T11:56:09.815Z,981.48
2019-02-10T11:57:09.696Z,981.55
2019-02-10T11:58:09.676Z,981.44
2019-02-10T11:59:09.666Z,981.49
2019-02-10T12:00:09.635Z,981.45
2019-02-10T12:01:09.618Z,981.37
2019-02-10T12:02:09.595Z,981.41
2019-02-10T12:03:09.587Z,981.34
2019-02-10T12:04:09.566Z,981.37
2019-02-10T12:05:09.540Z,981.39
2019-02-10T12:06:09.517Z,981.34
2019-02-10T12:07:09.504Z,981.37
2019-02-10T12:08:09.477Z,981.39
2019-02-10T12:09:09.454Z,981.39
2019-02-10T12:10:09.437Z,981.38
2019-02-10T12:11:09.419Z,981.46
2019-02-10T12:12:09.397Z,981.40
2019-02-10T12:13:09.377Z,981.37
2019-02-10T12:14:09.368Z,981.41
2019-02-10T12:15:09.340Z,981.36
2019-02-10T12:16:09.329Z,981.33
2019-02-10T12:17:09.310Z,981.31
2019-02-10T12:18:09.287Z,981.34
2019-02-10T12:19:09.263Z,981.44
2019-02-10T12:20:09.242Z,981.40
2019-02-10T12:21:09.239Z,981.37
2019-02-10T12:22:09.210Z,981.38
2019-02-10T12:23:09.183Z,981.43
2019-02-10T12:24:09.161Z,981.42
2019-02-10T12:25:09.142Z,981.34
2019-02-10T12:26:09.124Z,981.41
2019-02-10T12:27:09.102Z,981.30
2019-02-10T12:28:09.082Z,981.29